Time;durP1;ratioP1;P1;durP2;ratioP2;P2;SDS_P1;SDS_P2;PMS_P1;PMS_P2;Temp;Humidity;BMP_temperature;BMP_pressure;BME280_temperature;BME280_humidity;BME280_pressure;Samples;Min_cycle;Max_cycle;Signal;HPM_P1;HPM_P2
2021/03/11 00:00:01;;;;;;;16.50;3.60;;;11.60;99.90;;;;;;5046148;28;20290;-74
2021/03/11 00:02:28;;;;;;;12.70;3.23;;;11.60;99.90;;;;;;5039503;28;20239;-74
2021/03/11 00:04:54;;;;;;;10.73;3.00;;;11.60;99.90;;;;;;5032493;28;20235;-74
2021/03/11 00:07:22;;;;;;;12.40;3.23;;;11.60;99.90;;;;;;5033099;28;20242;-75
2021/03/11 00:09:48;;;;;;;11.97;3.30;;;11.60;99.90;;;;;;5033318;28;20291;-74
2021/03/11 00:12:15;;;;;;;9.37;2.60;;;11.60;99.90;;;;;;5033123;28;20259;-74
2021/03/11 00:14:41;;;;;;;14.13;3.33;;;11.60;99.90;;;;;;5033292;28;20261;-73
2021/03/11 00:17:08;;;;;;;12.73;3.10;;;11.70;99.90;;;;;;5037522;28;20251;-73
2021/03/11 00:19:35;;;;;;;12.67;2.83;;;11.60;99.90;;;;;;5051163;28;20233;-73
2021/03/11 00:22:02;;;;;;;8.60;2.70;;;11.70;99.90;;;;;;5037548;28;20208;-74
2021/03/11 00:24:30;;;;;;;8.10;2.67;;;11.70;99.90;;;;;;5049895;28;20231;-76
2021/03/11 00:26:56;;;;;;;11.87;3.00;;;11.70;99.90;;;;;;5052862;28;20312;-76
2021/03/11 00:29:23;;;;;;;10.20;2.70;;;11.70;99.90;;;;;;5052758;28;20245;-76
2021/03/11 00:31:49;;;;;;;6.87;2.70;;;11.70;99.90;;;;;;5052584;28;20230;-75
2021/03/11 00:34:16;;;;;;;7.53;2.47;;;11.70;99.90;;;;;;5052482;28;20226;-76
2021/03/11 00:36:42;;;;;;;8.60;2.53;;;11.70;99.90;;;;;;5045210;28;20246;-76
2021/03/11 00:39:09;;;;;;;7.97;2.67;;;11.70;99.90;;;;;;5052692;28;20203;-75
2021/03/11 00:41:36;;;;;;;11.10;2.33;;;11.70;99.90;;;;;;5051981;28;20706;-75
2021/03/11 00:44:03;;;;;;;9.53;2.10;;;11.80;99.90;;;;;;5052375;28;20234;-76
2021/03/11 00:46:30;;;;;;;7.60;1.80;;;11.80;99.90;;;;;;5051741;28;20739;-75
2021/03/11 00:48:56;;;;;;;4.67;1.70;;;11.80;99.90;;;;;;5051814;28;20223;-76
2021/03/11 00:51:22;;;;;;;6.03;1.43;;;11.80;99.90;;;;;;5052160;28;20268;-75
2021/03/11 00:53:49;;;;;;;4.50;1.40;;;11.80;99.90;;;;;;5051905;28;20290;-75
2021/03/11 00:56:15;;;;;;;5.20;1.50;;;11.80;99.90;;;;;;5039231;28;20238;-75
2021/03/11 00:58:42;;;;;;;4.80;1.50;;;11.80;99.90;;;;;;5039065;28;20235;-76
2021/03/11 01:01:09;;;;;;;6.20;1.30;;;11.80;99.90;;;;;;5045358;28;20233;-75
2021/03/11 01:03:35;;;;;;;4.70;1.10;;;11.80;99.90;;;;;;5051205;28;20265;-75
2021/03/11 01:06:02;;;;;;;5.13;0.97;;;11.80;99.90;;;;;;5051233;28;20241;-76
2021/03/11 01:08:28;;;;;;;3.80;1.17;;;11.70;99.90;;;;;;5048073;28;20234;-75
2021/03/11 01:10:55;;;;;;;4.93;1.20;;;11.70;99.90;;;;;;5036081;28;20239;-75
2021/03/11 01:13:21;;;;;;;3.53;1.20;;;11.70;99.90;;;;;;5032418;28;20318;-75
2021/03/11 01:15:49;;;;;;;4.30;1.40;;;11.70;99.90;;;;;;5047248;28;20201;-75
2021/03/11 01:18:15;;;;;;;4.80;0.93;;;11.70;99.90;;;;;;5038872;28;20826;-75
2021/03/11 01:20:42;;;;;;;4.50;1.30;;;11.60;99.90;;;;;;5051663;28;20265;-75
2021/03/11 01:23:08;;;;;;;8.20;1.50;;;11.60;99.90;;;;;;5051777;28;20292;-75
2021/03/11 01:25:35;;;;;;;5.27;1.47;;;11.60;99.90;;;;;;5051526;28;20220;-75
2021/03/11 01:28:01;;;;;;;10.10;1.97;;;11.50;99.90;;;;;;5050632;28;20825;-76
2021/03/11 01:30:28;;;;;;;7.13;1.40;;;11.60;99.90;;;;;;5051231;28;20607;-75
2021/03/11 01:32:55;;;;;;;10.70;2.20;;;11.60;99.90;;;;;;5049427;28;20234;-76
2021/03/11 01:35:22;;;;;;;12.43;1.87;;;11.60;99.90;;;;;;5046519;28;20234;-76
2021/03/11 01:37:48;;;;;;;10.40;2.03;;;11.60;99.90;;;;;;5051361;28;20235;-76
2021/03/11 01:40:15;;;;;;;9.77;1.97;;;11.60;99.90;;;;;;5050205;28;20231;-76
2021/03/11 01:42:41;;;;;;;13.70;2.63;;;11.60;99.90;;;;;;5051494;28;20697;-75
2021/03/11 01:45:09;;;;;;;13.93;2.60;;;11.60;99.90;;;;;;5051294;28;20231;-75
2021/03/11 01:47:37;;;;;;;12.40;3.37;;;11.60;99.90;;;;;;5051354;28;20239;-75
2021/03/11 01:50:05;;;;;;;12.47;3.27;;;11.60;99.90;;;;;;5050820;28;20238;-75
2021/03/11 01:52:34;;;;;;;13.43;3.40;;;11.60;99.90;;;;;;5051305;28;20705;-76
2021/03/11 01:55:01;;;;;;;17.00;3.80;;;11.60;99.90;;;;;;5051565;28;20235;-76
2021/03/11 01:57:28;;;;;;;17.00;3.97;;;11.60;99.90;;;;;;5051422;28;20206;-75
2021/03/11 01:59:55;;;;;;;14.53;3.60;;;11.60;99.90;;;;;;5050533;28;20235;-75
2021/03/11 02:02:22;;;;;;;16.67;3.30;;;11.60;99.90;;;;;;5043202;28;20258;-75
2021/03/11 02:04:48;;;;;;;14.00;2.70;;;11.60;99.90;;;;;;5051260;28;20227;-76
2021/03/11 02:07:15;;;;;;;15.23;2.70;;;11.60;99.90;;;;;;5050177;28;20208;-75
2021/03/11 02:09:42;;;;;;;18.60;2.83;;;11.50;99.90;;;;;;5038464;28;20823;-75
2021/03/11 02:12:16;;;;;;;13.63;2.77;;;11.50;99.90;;;;;;5050649;28;20244;-75
2021/03/11 02:14:50;;;;;;;22.20;3.23;;;11.50;99.90;;;;;;5039968;28;20232;-75
2021/03/11 02:17:19;;;;;;;20.33;2.93;;;11.40;99.90;;;;;;5050619;28;20250;-75
2021/03/11 02:20:19;;;;;;;18.00;2.97;;;11.40;99.90;;;;;;5033461;28;20234;-75
2021/03/11 02:23:08;;;;;;;19.17;3.00;;;11.30;99.90;;;;;;5044413;28;20202;-74
2021/03/11 02:25:45;;;;;;;17.17;2.60;;;11.30;99.90;;;;;;5051057;28;20515;-75
2021/03/11 02:28:19;;;;;;;15.53;3.00;;;11.20;99.90;;;;;;5050811;28;20300;-74
2021/03/11 02:30:47;;;;;;;16.93;3.33;;;11.20;99.90;;;;;;5054582;28;20200;-74
2021/03/11 02:33:14;;;;;;;15.40;2.80;;;11.20;99.90;;;;;;5051880;28;20714;-74
2021/03/11 02:35:43;;;;;;;14.07;2.83;;;11.20;99.90;;;;;;5039935;28;20625;-74
2021/03/11 02:38:12;;;;;;;18.23;3.23;;;11.20;99.90;;;;;;5053862;28;20242;-73
2021/03/11 02:40:40;;;;;;;14.60;3.23;;;11.10;99.90;;;;;;5047966;28;20224;-74
2021/03/11 02:43:13;;;;;;;20.03;3.00;;;11.10;99.90;;;;;;5048377;28;20235;-75
2021/03/11 02:45:40;;;;;;;18.47;2.80;;;11.10;99.90;;;;;;5054128;28;20239;-75
2021/03/11 02:48:11;;;;;;;16.67;2.80;;;11.10;99.90;;;;;;5046085;28;20625;-74
2021/03/11 02:50:39;;;;;;;16.33;2.70;;;11.10;99.90;;;;;;5035577;28;20200;-75
2021/03/11 02:53:09;;;;;;;12.77;2.77;;;11.20;99.90;;;;;;5054556;28;20258;-75
2021/03/11 02:55:37;;;;;;;13.80;2.40;;;11.20;99.90;;;;;;5048709;28;20195;-74
2021/03/11 02:58:07;;;;;;;13.47;2.90;;;11.30;99.90;;;;;;5034201;28;20213;-74
2021/03/11 03:00:33;;;;;;;18.00;3.27;;;11.30;99.90;;;;;;5033394;28;20207;-74
2021/03/11 03:03:01;;;;;;;18.40;3.30;;;11.30;99.90;;;;;;5051937;28;20247;-74
2021/03/11 03:05:30;;;;;;;19.93;3.73;;;11.30;99.90;;;;;;5052287;28;20232;-74
2021/03/11 03:07:59;;;;;;;14.60;3.07;;;11.40;99.90;;;;;;5052593;28;20613;-74
2021/03/11 03:10:28;;;;;;;14.40;2.70;;;11.40;99.90;;;;;;5054197;28;20242;-74
2021/03/11 03:12:57;;;;;;;10.33;2.50;;;11.30;99.90;;;;;;5054043;28;20259;-74
2021/03/11 03:15:24;;;;;;;11.27;2.30;;;11.30;99.90;;;;;;5044803;28;20284;-75
2021/03/11 03:17:52;;;;;;;10.13;2.00;;;11.30;99.90;;;;;;5038042;28;20374;-76
2021/03/11 03:20:19;;;;;;;8.60;1.73;;;11.30;99.90;;;;;;5034201;28;20265;-75
2021/03/11 03:22:48;;;;;;;9.20;1.87;;;11.40;99.90;;;;;;5034321;28;20202;-75
2021/03/11 03:25:15;;;;;;;7.93;2.10;;;11.30;99.90;;;;;;5034204;28;20256;-76
2021/03/11 03:27:42;;;;;;;8.70;1.90;;;11.30;99.90;;;;;;5043076;28;20349;-76
2021/03/11 03:30:12;;;;;;;11.17;2.33;;;11.30;99.90;;;;;;5044857;28;20666;-76
2021/03/11 03:32:38;;;;;;;7.17;2.00;;;11.40;99.90;;;;;;5053765;28;20648;-76
2021/03/11 03:35:07;;;;;;;10.73;2.37;;;11.40;99.90;;;;;;5038767;28;20232;-76
2021/03/11 03:37:33;;;;;;;9.33;2.00;;;11.40;99.90;;;;;;5033866;28;20294;-76
2021/03/11 03:40:03;;;;;;;8.70;2.13;;;11.40;99.90;;;;;;5033421;28;20620;-76
2021/03/11 03:42:31;;;;;;;12.40;2.73;;;11.40;99.90;;;;;;5033296;28;20236;-76
2021/03/11 03:45:01;;;;;;;11.33;2.50;;;11.50;99.90;;;;;;5039341;28;20785;-76
2021/03/11 03:47:28;;;;;;;14.20;2.77;;;11.40;99.90;;;;;;5052353;28;20239;-75
2021/03/11 03:49:55;;;;;;;15.63;2.60;;;11.40;99.90;;;;;;5043967;28;20231;-76
2021/03/11 03:52:23;;;;;;;16.20;3.23;;;11.40;99.90;;;;;;5034047;28;20318;-75
2021/03/11 03:54:50;;;;;;;18.07;3.37;;;11.30;99.90;;;;;;5033256;28;20696;-75
2021/03/11 03:57:20;;;;;;;14.47;3.10;;;11.30;99.90;;;;;;5050075;28;20284;-76
2021/03/11 03:59:49;;;;;;;18.10;3.83;;;11.30;99.90;;;;;;5052942;28;20694;-75
2021/03/11 04:02:18;;;;;;;18.27;3.60;;;11.30;99.90;;;;;;5044866;28;20247;-75
2021/03/11 04:04:48;;;;;;;12.13;2.53;;;11.30;99.90;;;;;;5042243;28;20289;-74
2021/03/11 04:07:18;;;;;;;14.00;2.43;;;11.30;99.90;;;;;;5047921;28;20269;-76
2021/03/11 04:09:46;;;;;;;16.57;2.60;;;11.20;99.90;;;;;;5033213;28;20203;-76
2021/03/11 04:12:14;;;;;;;16.13;2.50;;;11.20;99.90;;;;;;5032848;28;20274;-75
2021/03/11 04:14:41;;;;;;;17.80;3.40;;;11.30;99.90;;;;;;5040102;28;20235;-75
2021/03/11 04:17:09;;;;;;;11.03;2.70;;;11.30;99.90;;;;;;5049879;28;20262;-76
2021/03/11 04:19:37;;;;;;;11.43;2.60;;;11.30;99.90;;;;;;5049809;28;20303;-76
2021/03/11 04:22:04;;;;;;;13.57;2.37;;;11.30;99.90;;;;;;5052934;28;20247;-75
2021/03/11 04:24:31;;;;;;;9.30;2.17;;;11.30;99.90;;;;;;5052738;28;20242;-75
2021/03/11 04:27:00;;;;;;;13.93;3.00;;;11.30;99.90;;;;;;5051899;28;20246;-75
2021/03/11 04:29:28;;;;;;;9.73;2.30;;;11.30;99.90;;;;;;5052490;28;20231;-75
2021/03/11 04:31:57;;;;;;;10.50;2.33;;;11.30;99.90;;;;;;5043080;28;20772;-76
2021/03/11 04:34:23;;;;;;;8.07;2.50;;;11.30;99.90;;;;;;5042914;28;20244;-75
2021/03/11 04:36:51;;;;;;;12.97;2.43;;;11.40;99.90;;;;;;5044798;28;20232;-75
2021/03/11 04:39:19;;;;;;;11.93;2.00;;;11.30;99.90;;;;;;5046493;28;20695;-75
2021/03/11 04:41:46;;;;;;;8.07;1.63;;;11.40;99.90;;;;;;5032631;28;20303;-75
2021/03/11 04:44:13;;;;;;;11.03;2.40;;;11.40;99.90;;;;;;5032797;28;20287;-75
2021/03/11 04:46:40;;;;;;;12.90;2.47;;;11.30;99.90;;;;;;5043971;28;20206;-76
2021/03/11 04:49:08;;;;;;;13.73;2.57;;;11.40;99.90;;;;;;5051765;28;20241;-76
2021/03/11 04:51:35;;;;;;;16.00;2.40;;;11.40;99.90;;;;;;5050950;28;20242;-75
2021/03/11 04:54:02;;;;;;;11.13;2.67;;;11.40;99.90;;;;;;5050972;28;20242;-76
2021/03/11 04:56:28;;;;;;;13.27;2.40;;;11.40;99.90;;;;;;5051977;28;20220;-75
2021/03/11 04:58:55;;;;;;;17.00;2.40;;;11.30;99.90;;;;;;5038885;28;20291;-76
2021/03/11 05:01:25;;;;;;;17.10;2.60;;;11.30;99.90;;;;;;5027772;28;20203;-75
2021/03/11 05:03:53;;;;;;;16.17;2.80;;;11.30;99.90;;;;;;5039892;28;20220;-75
2021/03/11 05:06:20;;;;;;;14.10;2.70;;;11.30;99.90;;;;;;5032494;28;20234;-75
2021/03/11 05:08:46;;;;;;;9.20;2.07;;;11.20;99.90;;;;;;5032200;28;20284;-75
2021/03/11 05:11:14;;;;;;;8.47;1.60;;;11.10;99.90;;;;;;5044548;28;20303;-75
2021/03/11 05:13:41;;;;;;;6.07;1.20;;;11.00;99.90;;;;;;5046052;28;20306;-75
2021/03/11 05:16:08;;;;;;;7.90;1.63;;;11.00;99.90;;;;;;5051911;28;20289;-76
2021/03/11 05:18:35;;;;;;;7.97;1.40;;;11.00;99.90;;;;;;5033889;28;20255;-73
2021/03/11 05:21:02;;;;;;;7.23;1.60;;;11.00;99.90;;;;;;5044118;28;20267;-76
2021/03/11 05:23:29;;;;;;;7.77;1.30;;;11.00;99.90;;;;;;5051766;28;20228;-76
2021/03/11 05:25:56;;;;;;;10.23;1.57;;;11.00;99.90;;;;;;5035272;28;20695;-77
2021/03/11 05:28:22;;;;;;;6.90;1.53;;;11.00;99.90;;;;;;5037015;28;20205;-76
2021/03/11 05:30:49;;;;;;;7.50;1.50;;;11.00;99.90;;;;;;5052195;28;20234;-75
2021/03/11 05:33:16;;;;;;;7.83;1.97;;;11.00;99.90;;;;;;5044805;28;20314;-75
2021/03/11 05:35:43;;;;;;;7.17;1.83;;;10.90;99.90;;;;;;5051980;28;20297;-77
2021/03/11 05:38:10;;;;;;;10.90;1.73;;;10.90;99.90;;;;;;5051899;28;20255;-76
2021/03/11 05:40:38;;;;;;;11.40;2.23;;;10.90;99.90;;;;;;5051791;28;20227;-76
2021/03/11 05:43:08;;;;;;;9.77;1.80;;;10.90;99.90;;;;;;5051651;28;20208;-75
2021/03/11 05:45:34;;;;;;;13.10;2.47;;;10.90;99.90;;;;;;5050537;28;20626;-76
2021/03/11 05:48:01;;;;;;;7.83;1.83;;;10.80;99.90;;;;;;5051589;28;20290;-73
2021/03/11 05:50:29;;;;;;;10.37;2.33;;;10.90;99.90;;;;;;5031126;28;20236;-76
2021/03/11 05:52:57;;;;;;;11.67;2.00;;;10.80;99.90;;;;;;5037133;28;20257;-76
2021/03/11 05:55:25;;;;;;;14.20;2.50;;;10.80;99.90;;;;;;5051068;28;20199;-76
2021/03/11 05:57:53;;;;;;;15.80;2.77;;;10.70;99.90;;;;;;5051503;28;20290;-76
2021/03/11 06:00:21;;;;;;;16.17;2.70;;;10.70;99.90;;;;;;5051157;28;20195;-76
2021/03/11 06:02:56;;;;;;;18.27;2.43;;;10.70;99.90;;;;;;5053409;28;20231;-76
2021/03/11 06:05:23;;;;;;;19.87;2.77;;;10.70;99.90;;;;;;5055800;28;20241;-74
2021/03/11 06:07:50;;;;;;;14.07;2.77;;;10.70;99.90;;;;;;5055500;28;20204;-75
2021/03/11 06:10:19;;;;;;;16.73;3.37;;;10.60;99.90;;;;;;5058586;28;20305;-76
2021/03/11 06:12:47;;;;;;;17.80;4.00;;;10.60;99.90;;;;;;5052397;28;20251;-75
2021/03/11 06:15:20;;;;;;;16.00;3.63;;;10.50;99.90;;;;;;5055237;28;20290;-76
2021/03/11 06:17:49;;;;;;;18.03;3.10;;;10.40;99.90;;;;;;5044073;28;20303;-77
2021/03/11 06:20:16;;;;;;;17.47;2.77;;;10.40;99.90;;;;;;5039211;28;20729;-76
2021/03/11 06:22:42;;;;;;;17.17;2.83;;;10.40;99.90;;;;;;5051053;28;20238;-76
2021/03/11 06:25:09;;;;;;;13.70;2.80;;;10.40;99.90;;;;;;5049945;28;20258;-76
2021/03/11 06:27:36;;;;;;;15.00;2.77;;;10.50;99.90;;;;;;5047963;28;20679;-76
2021/03/11 06:30:03;;;;;;;17.60;3.20;;;10.50;99.90;;;;;;5046790;28;20203;-76
2021/03/11 06:32:31;;;;;;;19.47;3.23;;;10.50;99.90;;;;;;5055279;28;20310;-76
2021/03/11 06:34:57;;;;;;;21.13;3.50;;;10.50;99.90;;;;;;5054213;28;20215;-75
2021/03/11 06:37:37;;;;;;;18.40;3.73;;;10.50;99.90;;;;;;5048097;28;20282;-76
2021/03/11 06:40:14;;;;;;;15.07;3.50;;;10.50;99.90;;;;;;5043729;28;20227;-75
2021/03/11 06:42:45;;;;;;;19.07;3.20;;;10.60;99.90;;;;;;5050538;28;20742;-75
2021/03/11 06:45:23;;;;;;;19.63;3.53;;;10.70;99.90;;;;;;5051627;28;20232;-77
2021/03/11 06:47:52;;;;;;;22.57;3.83;;;10.60;99.90;;;;;;5054716;28;20703;-76
2021/03/11 06:50:23;;;;;;;16.17;3.20;;;10.60;99.90;;;;;;5049389;28;20235;-76
2021/03/11 06:53:03;;;;;;;18.40;3.80;;;10.60;99.90;;;;;;5066560;28;20221;-75
2021/03/11 06:55:29;;;;;;;21.47;3.80;;;10.50;99.90;;;;;;5071462;28;20237;-76
2021/03/11 06:57:56;;;;;;;20.83;4.10;;;10.50;99.90;;;;;;5056952;28;20292;-76
2021/03/11 07:00:24;;;;;;;22.77;4.27;;;10.40;99.90;;;;;;5055967;28;20227;-76
2021/03/11 07:02:52;;;;;;;20.53;3.87;;;10.40;99.90;;;;;;5048507;28;20207;-76
2021/03/11 07:05:20;;;;;;;17.30;4.20;;;10.30;99.90;;;;;;5044274;28;20291;-76
2021/03/11 07:07:47;;;;;;;23.03;4.03;;;10.20;99.90;;;;;;5045037;28;20211;-76
2021/03/11 07:10:25;;;;;;;25.50;4.70;;;10.20;99.90;;;;;;5045460;28;20232;-75
2021/03/11 07:12:53;;;;;;;17.93;3.90;;;10.20;99.90;;;;;;5057467;28;20349;-75
2021/03/11 07:15:21;;;;;;;22.67;4.30;;;10.10;99.90;;;;;;5045775;28;20204;-76
2021/03/11 07:17:48;;;;;;;21.03;4.10;;;10.10;99.90;;;;;;5042674;28;20249;-76
2021/03/11 07:20:17;;;;;;;24.70;4.80;;;10.10;99.90;;;;;;5026008;28;20749;-75
2021/03/11 07:23:00;;;;;;;25.07;4.70;;;10.10;99.90;;;;;;5045759;28;20214;-76
2021/03/11 07:25:29;;;;;;;18.30;4.07;;;10.20;99.90;;;;;;5042345;28;20234;-74
2021/03/11 07:27:56;;;;;;;23.50;4.37;;;10.40;99.90;;;;;;5041885;28;20219;-74
2021/03/11 07:30:25;;;;;;;30.67;5.10;;;10.70;99.90;;;;;;5045683;28;20202;-75
2021/03/11 07:32:57;;;;;;;25.87;5.07;;;11.00;99.90;;;;;;5053889;28;20222;-75
2021/03/11 07:35:27;;;;;;;26.43;4.87;;;10.90;99.90;;;;;;5052031;28;20529;-75
2021/03/11 07:37:57;;;;;;;23.47;4.50;;;11.20;99.90;;;;;;5045238;28;20227;-74
2021/03/11 07:40:25;;;;;;;20.33;4.57;;;12.00;99.90;;;;;;5043795;28;20234;-75
2021/03/11 07:42:52;;;;;;;20.53;4.50;;;12.60;99.90;;;;;;5047923;28;20283;-75
2021/03/11 07:45:19;;;;;;;17.70;3.97;;;13.00;99.90;;;;;;5041774;28;20201;-75
2021/03/11 07:47:46;;;;;;;20.70;4.17;;;13.30;99.90;;;;;;5036327;28;20239;-75
2021/03/11 07:50:15;;;;;;;17.33;4.70;;;13.80;99.90;;;;;;5049292;28;20239;-75
2021/03/11 07:52:43;;;;;;;18.67;4.53;;;14.00;99.90;;;;;;5038963;28;20289;-75
2021/03/11 07:55:11;;;;;;;19.63;5.20;;;14.10;99.90;;;;;;5049651;28;20228;-74
2021/03/11 07:57:43;;;;;;;23.60;5.23;;;13.90;99.90;;;;;;5045598;28;20279;-74
2021/03/11 08:00:13;;;;;;;25.43;4.93;;;14.10;99.90;;;;;;5027046;28;20197;-75
2021/03/11 08:02:45;;;;;;;21.57;4.87;;;15.10;99.90;;;;;;5043601;28;20245;-75
2021/03/11 08:05:12;;;;;;;19.43;4.50;;;15.50;99.90;;;;;;5045693;28;20226;-76
2021/03/11 08:07:38;;;;;;;19.30;3.90;;;14.40;99.90;;;;;;5051457;28;20237;-75
2021/03/11 08:10:20;;;;;;;20.87;4.40;;;14.10;99.90;;;;;;5040062;28;20680;-76
2021/03/11 08:12:47;;;;;;;23.88;5.28;;;15.10;99.90;;;;;;5046524;28;20216;-75
2021/03/11 08:15:33;;;;;;;21.13;4.60;;;15.70;99.90;;;;;;5052672;28;20234;-76
2021/03/11 08:18:00;;;;;;;16.55;4.53;;;16.20;99.90;;;;;;5052874;28;20298;-75
2021/03/11 08:20:40;;;;;;;17.95;4.68;;;16.30;99.90;;;;;;5052403;28;20231;-75
2021/03/11 08:23:13;;;;;;;19.75;4.63;;;16.40;99.90;;;;;;5051423;28;20234;-75
2021/03/11 08:25:52;;;;;;;20.10;4.45;;;16.90;99.90;;;;;;5041486;28;20196;-75
2021/03/11 08:28:48;;;;;;;18.08;4.22;;;17.50;99.90;;;;;;5046546;28;20230;-75
2021/03/11 08:31:15;;;;;;;17.65;4.93;;;18.20;99.90;;;;;;5045875;28;20492;-76
2021/03/11 08:33:46;;;;;;;21.17;4.78;;;18.00;99.90;;;;;;5043247;28;20707;-77
2021/03/11 08:39:33;;;;;;;17.00;4.82;;;17.30;99.90;;;;;;5029063;28;20562;-75
2021/03/11 08:42:47;;;;;;;19.10;4.60;;;16.90;99.90;;;;;;5033041;28;20657;-75
2021/03/11 08:45:58;;;;;;;18.75;4.18;;;16.90;99.90;;;;;;5033193;28;20196;-75
2021/03/11 08:48:25;;;;;;;20.23;4.30;;;16.60;99.90;;;;;;5032807;28;20212;-75
2021/03/11 08:50:53;;;;;;;18.60;4.85;;;16.60;99.90;;;;;;5049457;28;20239;-75
2021/03/11 08:53:45;;;;;;;17.58;4.07;;;16.60;99.90;;;;;;5052362;28;20259;-75
2021/03/11 08:56:38;;;;;;;14.50;4.00;;;16.40;99.90;;;;;;5038810;28;20769;-76
2021/03/11 08:59:05;;;;;;;13.55;3.97;;;16.90;99.90;;;;;;5032824;28;20197;-76
2021/03/11 09:01:38;;;;;;;14.07;3.95;;;17.10;99.90;;;;;;5032226;28;20231;-75
2021/03/11 09:04:05;;;;;;;17.90;4.68;;;17.20;99.90;;;;;;5045900;28;20235;-76
2021/03/11 09:06:54;;;;;;;14.20;4.05;;;17.40;99.90;;;;;;5045989;28;20251;-76
2021/03/11 09:09:32;;;;;;;17.95;4.85;;;16.80;99.90;;;;;;5037865;28;20282;-76
2021/03/11 09:12:00;;;;;;;16.05;4.57;;;17.50;99.90;;;;;;5039478;28;20307;-76
2021/03/11 09:14:28;;;;;;;21.05;4.95;;;17.90;99.90;;;;;;5032485;28;20236;-76
2021/03/11 09:17:06;;;;;;;18.48;4.40;;;18.80;99.90;;;;;;5047896;28;20216;-76
2021/03/11 09:19:41;;;;;;;19.48;5.00;;;18.00;99.90;;;;;;5040194;28;20225;-76
2021/03/11 09:22:22;;;;;;;22.33;5.38;;;17.60;99.90;;;;;;5039260;28;20597;-76
2021/03/11 09:25:03;;;;;;;21.38;5.30;;;17.40;99.90;;;;;;5048385;28;20200;-76
2021/03/11 09:27:31;;;;;;;22.38;5.15;;;17.80;99.90;;;;;;5035689;28;20283;-76
2021/03/11 09:29:59;;;;;;;26.58;5.03;;;17.30;99.90;;;;;;5041543;28;20227;-76
2021/03/11 09:32:32;;;;;;;22.80;5.20;;;16.80;99.90;;;;;;5051820;28;20256;-76
2021/03/11 09:35:01;;;;;;;19.98;5.00;;;16.70;99.90;;;;;;5032416;28;20212;-75
2021/03/11 09:38:00;;;;;;;20.92;4.75;;;16.60;99.90;;;;;;5042525;28;20687;-76
2021/03/11 09:40:30;;;;;;;22.30;5.07;;;15.90;99.90;;;;;;5045799;28;20235;-75
2021/03/11 09:43:09;;;;;;;26.17;4.77;;;15.90;99.90;;;;;;5037881;28;20227;-75
2021/03/11 09:45:39;;;;;;;21.80;4.23;;;15.10;99.90;;;;;;5036814;28;20204;-76
2021/03/11 09:48:09;;;;;;;17.80;4.63;;;15.30;99.90;;;;;;5035769;28;20228;-75
2021/03/11 09:50:37;;;;;;;27.57;5.07;;;15.90;99.90;;;;;;5044528;28;20287;-75
2021/03/11 09:53:04;;;;;;;21.33;4.70;;;15.70;99.90;;;;;;5037120;28;20657;-76
2021/03/11 09:55:31;;;;;;;21.98;4.88;;;16.10;99.90;;;;;;5050843;28;20993;-76
2021/03/11 09:57:57;;;;;;;22.17;5.80;;;16.90;99.90;;;;;;5051083;28;20239;-76
2021/03/11 10:00:24;;;;;;;22.30;5.63;;;16.20;99.90;;;;;;5050986;28;20225;-75
2021/03/11 10:02:51;;;;;;;20.45;4.90;;;16.60;99.90;;;;;;5050682;28;20207;-76
2021/03/11 10:05:20;;;;;;;18.55;4.15;;;17.30;99.90;;;;;;5034562;28;20243;-76
2021/03/11 10:07:57;;;;;;;17.27;3.67;;;16.70;99.90;;;;;;5043618;28;20235;-76
2021/03/11 10:10:25;;;;;;;24.33;4.80;;;16.10;99.90;;;;;;5032209;28;20342;-75
2021/03/11 10:12:52;;;;;;;17.30;4.10;;;15.80;99.90;;;;;;5047592;28;20703;-75
2021/03/11 10:15:19;;;;;;;19.85;4.18;;;16.70;99.90;;;;;;5049129;28;20200;-75
2021/03/11 10:17:46;;;;;;;18.02;3.83;;;17.50;99.90;;;;;;5050521;28;20219;-74
2021/03/11 10:20:22;;;;;;;16.58;4.25;;;17.50;99.90;;;;;;5039890;28;20229;-76
2021/03/11 10:22:49;;;;;;;12.93;3.75;;;17.20;99.90;;;;;;5033152;28;20628;-76
2021/03/11 10:25:16;;;;;;;19.38;4.05;;;17.60;99.90;;;;;;5036488;28;20197;-76
2021/03/11 10:27:45;;;;;;;12.98;3.50;;;17.80;99.90;;;;;;5033053;28;20258;-76
2021/03/11 10:30:15;;;;;;;13.35;3.35;;;18.10;99.90;;;;;;5046758;28;20200;-76
2021/03/11 10:32:44;;;;;;;15.18;3.42;;;18.90;99.90;;;;;;5048990;28;20223;-77
2021/03/11 10:35:12;;;;;;;15.82;3.50;;;18.80;99.90;;;;;;5032366;28;20224;-75
2021/03/11 10:37:41;;;;;;;14.63;3.85;;;18.10;99.90;;;;;;5043320;28;20239;-76
2021/03/11 10:40:11;;;;;;;15.25;3.88;;;18.70;99.90;;;;;;5029850;28;20285;-76
2021/03/11 10:42:42;;;;;;;12.65;3.28;;;18.20;99.90;;;;;;5046118;28;20283;-76
2021/03/11 10:45:10;;;;;;;13.55;3.38;;;18.50;99.90;;;;;;5023507;28;20200;-76
2021/03/11 10:47:37;;;;;;;18.98;3.63;;;17.80;99.90;;;;;;5039494;28;20279;-76
2021/03/11 10:50:15;;;;;;;12.20;2.97;;;17.90;99.90;;;;;;5043785;28;20655;-76
2021/03/11 10:52:48;;;;;;;14.65;3.30;;;17.30;99.90;;;;;;5043642;28;20711;-76
2021/03/11 10:55:27;;;;;;;12.43;2.63;;;16.50;99.90;;;;;;5044435;28;20231;-76
2021/03/11 10:57:53;;;;;;;13.13;3.20;;;15.80;99.90;;;;;;5042650;28;20247;-76
2021/03/11 11:00:23;;;;;;;9.90;2.90;;;16.80;99.90;;;;;;5042869;28;20319;-75
2021/03/11 11:02:53;;;;;;;9.43;2.47;;;17.50;99.90;;;;;;5046484;28;20201;-76
2021/03/11 11:05:20;;;;;;;9.20;2.95;;;18.00;99.90;;;;;;5045428;28;20192;-76
2021/03/11 11:07:46;;;;;;;9.38;2.88;;;17.20;99.90;;;;;;5042992;28;20235;-76
2021/03/11 11:10:16;;;;;;;9.32;2.25;;;17.60;99.90;;;;;;5045703;28;20718;-76
2021/03/11 11:12:42;;;;;;;9.53;2.27;;;16.80;99.90;;;;;;5047618;28;20259;-76
2021/03/11 11:15:10;;;;;;;12.47;2.70;;;15.90;99.90;;;;;;5045880;28;20231;-76
2021/03/11 11:17:36;;;;;;;10.77;2.33;;;15.50;99.90;;;;;;5050466;28;20643;-76
2021/03/11 11:20:04;;;;;;;8.93;2.17;;;14.80;99.90;;;;;;5041406;28;20725;-75
2021/03/11 11:22:31;;;;;;;7.47;1.50;;;13.50;99.90;;;;;;5043721;28;20205;-75
2021/03/11 11:24:59;;;;;;;7.23;1.17;;;12.80;99.90;;;;;;5048090;28;20197;-76
2021/03/11 11:27:26;;;;;;;7.00;1.20;;;12.70;99.90;;;;;;5046992;28;20287;-76
2021/03/11 11:29:52;;;;;;;4.20;1.37;;;13.00;99.90;;;;;;5035188;28;20255;-76
2021/03/11 11:32:19;;;;;;;3.07;0.97;;;13.20;99.90;;;;;;5036127;28;20235;-75
2021/03/11 11:34:46;;;;;;;3.77;0.90;;;13.20;99.90;;;;;;5054339;28;20203;-76
2021/03/11 11:37:13;;;;;;;4.93;0.93;;;13.00;99.90;;;;;;5045465;28;20234;-75
2021/03/11 11:39:40;;;;;;;5.77;0.90;;;13.10;99.90;;;;;;5051916;28;20231;-75
2021/03/11 11:42:07;;;;;;;3.93;1.17;;;14.20;99.90;;;;;;5047126;28;20633;-75
2021/03/11 11:44:34;;;;;;;5.20;1.53;;;14.80;99.90;;;;;;5034184;28;20687;-76
2021/03/11 11:47:01;;;;;;;5.47;1.10;;;15.30;99.90;;;;;;5047190;28;20277;-76
2021/03/11 11:49:27;;;;;;;6.77;1.77;;;15.40;99.90;;;;;;5034586;28;20623;-75
2021/03/11 11:51:54;;;;;;;6.50;1.33;;;15.30;99.90;;;;;;5053279;28;20227;-75
2021/03/11 11:54:20;;;;;;;9.40;1.33;;;14.70;99.90;;;;;;5052836;28;20319;-75
2021/03/11 11:56:46;;;;;;;7.93;1.43;;;14.00;99.90;;;;;;5041908;28;20232;-75
2021/03/11 11:59:13;;;;;;;6.80;1.40;;;13.60;99.90;;;;;;5033312;28;20201;-76
2021/03/11 12:01:40;;;;;;;8.33;2.30;;;13.30;99.90;;;;;;5051195;28;20246;-75
2021/03/11 12:04:07;;;;;;;5.73;1.70;;;13.10;99.90;;;;;;5052989;28;20228;-75
2021/03/11 12:06:33;;;;;;;7.00;1.80;;;12.90;99.90;;;;;;5044315;28;20238;-76
2021/03/11 12:09:00;;;;;;;7.80;1.60;;;12.90;99.90;;;;;;5044456;28;20283;-76
2021/03/11 12:11:27;;;;;;;8.10;2.17;;;12.70;99.90;;;;;;5033478;28;20239;-75
2021/03/11 12:13:53;;;;;;;10.00;1.87;;;12.60;99.90;;;;;;5042221;28;20681;-76
2021/03/11 12:16:19;;;;;;;9.13;2.10;;;12.90;99.90;;;;;;5036525;28;20228;-75
2021/03/11 12:18:47;;;;;;;10.53;2.50;;;12.90;99.90;;;;;;5049667;28;20256;-75
2021/03/11 12:21:13;;;;;;;9.97;2.30;;;12.90;99.90;;;;;;5047234;28;20735;-75
2021/03/11 12:23:39;;;;;;;7.53;1.70;;;12.80;99.90;;;;;;5046538;28;20736;-75
2021/03/11 12:26:06;;;;;;;6.33;1.80;;;12.60;99.90;;;;;;5052491;28;20239;-75
2021/03/11 12:28:32;;;;;;;6.53;1.80;;;12.50;99.90;;;;;;5041241;28;20707;-75
2021/03/11 12:30:59;;;;;;;10.20;1.80;;;12.50;99.90;;;;;;5044415;28;20275;-75
2021/03/11 12:33:25;;;;;;;11.73;1.70;;;12.50;99.90;;;;;;5050824;28;20259;-75
2021/03/11 12:35:52;;;;;;;6.63;1.80;;;12.40;99.90;;;;;;5050340;28;20200;-75
2021/03/11 12:38:20;;;;;;;8.07;2.00;;;12.50;99.90;;;;;;5039879;28;20722;-75
2021/03/11 12:40:47;;;;;;;6.47;2.03;;;13.60;99.90;;;;;;5051566;28;20188;-75
2021/03/11 12:43:13;;;;;;;10.10;1.77;;;15.20;99.90;;;;;;5047988;28;20729;-75
2021/03/11 12:45:40;;;;;;;11.77;2.30;;;16.10;99.90;;;;;;5042337;28;20263;-75
2021/03/11 12:48:07;;;;;;;9.10;1.90;;;16.60;99.90;;;;;;5045748;28;20243;-75
2021/03/11 12:50:33;;;;;;;11.03;2.33;;;16.20;99.90;;;;;;5029509;28;20668;-75
2021/03/11 12:53:01;;;;;;;11.63;2.43;;;16.00;99.90;;;;;;5043904;28;20377;-76